Time;durP1;ratioP1;P1;durP2;ratioP2;P2;SDS_P1;SDS_P2;PMS_P1;PMS_P2;Temp;Humidity;BMP_temperature;BMP_pressure;BME280_temperature;BME280_humidity;BME280_pressure;Samples;Min_cycle;Max_cycle;Signal;HPM_P1;HPM_P2
2023/12/17 00:00:29;;;;;;;13.53;11.13;;;;;;;9.17;100.00;103271.28;6197989;28;20237;-70
2023/12/17 00:03:50;;;;;;;12.93;10.10;;;;;;;9.18;100.00;103275.72;6201333;28;20311;-70
2023/12/17 00:07:11;;;;;;;11.77;9.73;;;;;;;9.23;100.00;103278.19;6195023;28;20233;-69
2023/12/17 00:10:32;;;;;;;10.67;9.63;;;;;;;9.25;100.00;103293.34;6200620;28;22361;-69
2023/12/17 00:13:54;;;;;;;12.27;9.70;;;;;;;9.28;100.00;103286.97;6203576;28;20233;-69
2023/12/17 00:17:16;;;;;;;10.90;9.80;;;;;;;9.26;100.00;103287.00;6198963;28;21019;-69
2023/12/17 00:20:37;;;;;;;9.37;8.30;;;;;;;9.28;100.00;103284.25;6196327;28;20229;-69
2023/12/17 00:23:58;;;;;;;11.20;9.87;;;;;;;9.28;100.00;103286.97;6206508;28;20233;-69
2023/12/17 00:27:19;;;;;;;14.10;10.67;;;;;;;9.27;100.00;103286.06;6207396;28;20233;-69
2023/12/17 00:30:39;;;;;;;12.20;9.47;;;;;;;9.28;100.00;103293.19;6201912;28;20233;-69
2023/12/17 00:34:02;;;;;;;11.90;8.60;;;;;;;9.33;100.00;103274.16;6172515;28;20245;-69
2023/12/17 00:37:23;;;;;;;10.63;8.83;;;;;;;9.31;100.00;103263.47;6202650;28;20273;-69
2023/12/17 00:40:44;;;;;;;13.83;10.80;;;;;;;9.30;100.00;103264.41;6200416;28;20233;-70
2023/12/17 00:44:05;;;;;;;9.97;9.00;;;;;;;9.35;100.00;103262.38;6174277;28;20774;-70
2023/12/17 00:47:25;;;;;;;10.03;8.50;;;;;;;9.36;100.00;103242.59;6202847;28;20237;-70
2023/12/17 00:50:47;;;;;;;12.67;9.23;;;;;;;9.37;100.00;103241.63;6201639;28;20249;-70
2023/12/17 00:54:08;;;;;;;9.30;8.40;;;;;;;9.37;100.00;103241.63;6189084;28;20502;-69
2023/12/17 00:57:29;;;;;;;10.00;8.47;;;;;;;9.37;100.00;103246.16;6199009;28;20236;-69
2023/12/17 01:00:50;;;;;;;10.00;8.23;;;;;;;9.40;100.00;103246.00;6198736;28;20237;-69
2023/12/17 01:04:11;;;;;;;8.40;7.07;;;;;;;9.41;100.00;103267.47;6195280;28;20229;-69
2023/12/17 01:07:33;;;;;;;9.63;7.57;;;;;;;9.43;100.00;103273.66;6196872;28;20237;-69
2023/12/17 01:10:54;;;;;;;8.03;6.90;;;;;;;9.47;100.00;103266.34;6202408;28;20229;-69
2023/12/17 01:14:16;;;;;;;8.27;7.33;;;;;;;9.47;100.00;103280.66;6204237;28;20286;-69
2023/12/17 01:17:37;;;;;;;8.77;6.97;;;;;;;9.47;100.00;103275.25;6208861;28;20248;-69
2023/12/17 01:21:00;;;;;;;7.87;7.07;;;;;;;9.47;100.00;103282.50;6210541;28;20740;-70
2023/12/17 01:24:22;;;;;;;7.50;6.57;;;;;;;9.48;100.00;103278.84;6206419;28;20228;-69
2023/12/17 01:27:43;;;;;;;11.97;6.83;;;;;;;9.50;100.00;103276.94;6207635;28;20319;-70
2023/12/17 01:31:04;;;;;;;6.60;5.97;;;;;;;9.51;100.00;103266.09;6208357;28;20232;-70
2023/12/17 01:34:25;;;;;;;6.07;5.40;;;;;;;9.53;100.00;103269.59;6209373;28;20256;-70
2023/12/17 01:37:47;;;;;;;11.63;8.13;;;;;;;9.52;100.00;103243.63;6210490;28;20233;-69
2023/12/17 01:41:10;;;;;;;8.47;7.03;;;;;;;9.52;100.00;103234.69;6209572;28;20327;-70
2023/12/17 01:44:31;;;;;;;8.20;7.33;;;;;;;9.51;100.00;103244.56;6207625;28;20253;-69
2023/12/17 01:47:52;;;;;;;8.43;7.63;;;;;;;9.51;100.00;103220.31;6207726;28;20233;-70
2023/12/17 01:51:13;;;;;;;6.87;6.17;;;;;;;9.52;100.00;103232.88;6208960;28;20237;-70
2023/12/17 01:54:34;;;;;;;6.27;5.67;;;;;;;9.52;100.00;103232.88;6206424;28;20252;-70
2023/12/17 01:57:57;;;;;;;7.37;6.63;;;;;;;9.53;100.00;103231.06;6208319;28;20237;-70
2023/12/17 02:01:18;;;;;;;6.50;5.77;;;;;;;9.55;100.00;103238.09;6205370;28;20237;-69
2023/12/17 02:04:39;;;;;;;6.90;6.30;;;;;;;9.54;100.00;103232.78;6206860;28;20524;-69
2023/12/17 02:08:00;;;;;;;6.23;5.30;;;;;;;9.53;100.00;103231.91;6208659;28;20249;-70
2023/12/17 02:11:21;;;;;;;9.93;6.67;;;;;;;9.55;100.00;103231.84;6206943;28;20225;-69
2023/12/17 02:14:43;;;;;;;6.43;5.83;;;;;;;9.54;100.00;103228.28;6194540;28;20260;-69
2023/12/17 02:18:05;;;;;;;7.23;5.33;;;;;;;9.60;100.00;103221.72;6208359;28;20240;-69
2023/12/17 02:21:26;;;;;;;8.33;5.90;;;;;;;9.59;100.00;103223.56;6206132;28;20229;-69
2023/12/17 02:24:48;;;;;;;6.77;5.50;;;;;;;9.62;100.00;103209.94;6208255;28;20245;-70
2023/12/17 02:28:09;;;;;;;5.80;4.33;;;;;;;9.64;100.00;103210.72;6203655;28;20312;-69
2023/12/17 02:31:30;;;;;;;4.00;3.60;;;;;;;9.68;100.00;103218.69;6204371;28;20229;-70
2023/12/17 02:34:51;;;;;;;6.83;5.10;;;;;;;9.64;100.00;103213.44;6179827;28;20241;-70
2023/12/17 02:38:12;;;;;;;6.13;4.57;;;;;;;9.65;100.00;103220.56;6179226;28;20225;-70
2023/12/17 02:41:35;;;;;;;5.53;4.43;;;;;;;9.68;100.00;103210.59;6180554;28;20532;-69
2023/12/17 02:44:55;;;;;;;6.00;5.40;;;;;;;9.65;100.00;103225.09;6179846;28;20240;-69
2023/12/17 02:48:16;;;;;;;6.03;5.43;;;;;;;9.63;100.00;103214.38;6193425;28;20237;-70
2023/12/17 02:51:37;;;;;;;5.47;4.57;;;;;;;9.63;100.00;103200.94;6172931;28;20606;-69
2023/12/17 02:54:58;;;;;;;6.07;4.90;;;;;;;9.64;100.00;103208.03;6200844;28;20320;-68
2023/12/17 02:58:21;;;;;;;5.80;4.40;;;;;;;9.63;100.00;103200.94;6199033;28;20365;-69
2023/12/17 03:01:42;;;;;;;5.83;4.10;;;;;;;9.67;100.00;103201.66;6196312;28;20242;-69
2023/12/17 03:05:04;;;;;;;5.67;4.47;;;;;;;9.65;100.00;103193.66;6203419;28;20956;-69
2023/12/17 03:08:25;;;;;;;5.20;4.30;;;;;;;9.63;100.00;103186.56;6203029;28;20253;-69
2023/12/17 03:11:46;;;;;;;6.37;4.90;;;;;;;9.64;100.00;103182.91;6202946;28;20530;-69
2023/12/17 03:15:09;;;;;;;4.40;4.00;;;;;;;9.62;100.00;103174.94;6203252;28;20241;-69
2023/12/17 03:18:30;;;;;;;6.57;4.87;;;;;;;9.66;100.00;103181.91;6203132;28;20237;-69
2023/12/17 03:21:51;;;;;;;4.40;4.03;;;;;;;9.64;100.00;103177.53;6204292;28;20249;-69
2023/12/17 03:25:12;;;;;;;5.90;5.17;;;;;;;9.67;100.00;103180.09;6202853;28;20240;-69
2023/12/17 03:28:33;;;;;;;8.57;4.23;;;;;;;9.68;100.00;103179.13;6204105;28;20237;-69
2023/12/17 03:31:57;;;;;;;5.63;4.33;;;;;;;9.68;100.00;103182.72;6203494;28;20233;-69
2023/12/17 03:35:18;;;;;;;5.87;5.27;;;;;;;9.71;100.00;103170.03;6204187;28;20678;-69
2023/12/17 03:38:39;;;;;;;4.37;3.43;;;;;;;9.70;100.00;103162.94;6202904;28;20229;-69
2023/12/17 03:42:00;;;;;;;5.90;3.97;;;;;;;9.70;100.00;103160.22;6199134;28;20257;-69
2023/12/17 03:45:21;;;;;;;4.17;3.77;;;;;;;9.69;100.00;103159.34;6206185;28;20237;-69
2023/12/17 03:48:44;;;;;;;4.37;3.67;;;;;;;9.66;100.00;103157.66;6190188;28;20252;-69
2023/12/17 03:52:07;;;;;;;5.33;3.60;;;;;;;9.67;100.00;103145.09;6200190;28;20237;-69
2023/12/17 03:55:28;;;;;;;3.73;3.43;;;;;;;9.67;100.00;103145.09;6204105;28;20237;-69
2023/12/17 03:58:49;;;;;;;4.73;4.33;;;;;;;9.64;100.00;103151.50;6201822;28;20229;-69
2023/12/17 04:02:10;;;;;;;4.30;3.93;;;;;;;9.67;100.00;103139.69;6202483;28;20229;-70
2023/12/17 04:05:32;;;;;;;6.27;4.10;;;;;;;9.67;100.00;103145.09;6197680;28;20245;-70
2023/12/17 04:08:53;;;;;;;7.10;3.87;;;;;;;9.64;100.00;103153.31;6201068;28;20237;-70
2023/12/17 04:12:14;;;;;;;5.40;4.10;;;;;;;9.65;100.00;103166.72;6199529;28;20237;-70
2023/12/17 04:15:35;;;;;;;4.93;4.43;;;;;;;9.64;100.00;103173.03;6199792;28;20509;-70
2023/12/17 04:18:57;;;;;;;3.80;3.50;;;;;;;9.66;100.00;103167.56;6201071;28;20253;-69
2023/12/17 04:22:19;;;;;;;7.33;4.07;;;;;;;9.66;100.00;103171.13;6199041;28;20233;-70
2023/12/17 04:25:40;;;;;;;6.83;3.20;;;;;;;9.68;100.00;103164.81;6202380;28;20655;-70
2023/12/17 04:29:01;;;;;;;11.73;4.97;;;;;;;9.68;100.00;103154.03;6208009;28;20229;-69
2023/12/17 04:32:22;;;;;;;5.20;3.77;;;;;;;9.68;100.00;103165.66;6197153;28;20233;-70
2023/12/17 04:35:43;;;;;;;6.10;3.50;;;;;;;9.68;100.00;103156.75;6202220;28;20233;-70
2023/12/17 04:39:05;;;;;;;4.00;3.03;;;;;;;9.68;100.00;103161.16;6199317;28;20241;-69
2023/12/17 04:42:28;;;;;;;4.23;3.90;;;;;;;9.69;100.00;103156.66;6200273;28;20229;-69
2023/12/17 04:45:49;;;;;;;4.90;4.40;;;;;;;9.68;100.00;103158.47;6201244;28;21238;-69
2023/12/17 04:49:10;;;;;;;4.50;4.10;;;;;;;9.68;100.00;103156.75;6197976;28;20238;-70
2023/12/17 04:52:31;;;;;;;3.97;3.43;;;;;;;9.71;100.00;103153.88;6197475;28;20253;-70
2023/12/17 04:55:53;;;;;;;5.80;4.90;;;;;;;9.71;100.00;103156.56;6206075;28;20926;-69
2023/12/17 04:59:14;;;;;;;4.73;4.03;;;;;;;9.70;100.00;103154.84;6202894;28;20237;-70
2023/12/17 05:02:35;;;;;;;5.23;3.77;;;;;;;9.67;100.00;103145.09;6196848;28;20233;-70
2023/12/17 05:05:56;;;;;;;5.97;3.73;;;;;;;9.72;100.00;103142.19;6200568;28;20324;-70
2023/12/17 05:09:17;;;;;;;3.87;3.37;;;;;;;9.70;100.00;103150.31;6199620;28;20527;-70
2023/12/17 05:12:39;;;;;;;4.63;4.17;;;;;;;9.73;100.00;103158.25;6196625;28;20236;-71
2023/12/17 05:16:00;;;;;;;4.40;4.00;;;;;;;9.73;100.00;103154.69;6201846;28;20256;-69
2023/12/17 05:19:21;;;;;;;6.03;4.10;;;;;;;9.72;100.00;103167.25;6201539;28;20253;-69
2023/12/17 05:22:42;;;;;;;4.07;3.77;;;;;;;9.73;100.00;103170.84;6200558;28;20244;-69
2023/12/17 05:26:03;;;;;;;3.83;3.53;;;;;;;9.72;100.00;103175.34;6200711;28;20316;-69
2023/12/17 05:29:26;;;;;;;3.67;3.20;;;;;;;9.72;100.00;103164.56;6201678;28;20237;-68
2023/12/17 05:32:47;;;;;;;5.83;3.80;;;;;;;9.77;100.00;103150.88;6202365;28;20282;-70
2023/12/17 05:36:08;;;;;;;4.27;2.77;;;;;;;9.75;100.00;103152.78;6174731;28;21002;-69
2023/12/17 05:39:29;;;;;;;5.33;4.33;;;;;;;9.74;100.00;103154.63;6199735;28;20694;-69
2023/12/17 05:42:50;;;;;;;4.10;3.13;;;;;;;9.76;100.00;103151.84;6197255;28;20233;-69
2023/12/17 05:46:12;;;;;;;3.80;3.50;;;;;;;9.74;100.00;103151.06;6416073;23;20230;-69
2023/12/17 05:49:37;;;;;;;4.67;3.43;;;;;;;9.75;100.00;103159.03;6132232;28;20238;-68
2023/12/17 05:52:58;;;;;;;7.07;3.97;;;;;;;9.75;100.00;103159.03;6136037;28;20752;-69
2023/12/17 05:56:20;;;;;;;4.83;3.67;;;;;;;9.73;100.00;103143.91;6136195;28;20266;-69
2023/12/17 05:59:41;;;;;;;3.83;3.53;;;;;;;9.75;100.00;103136.63;6135033;28;20321;-70
2023/12/17 06:03:03;;;;;;;7.13;3.77;;;;;;;9.74;100.00;103145.66;6131087;28;20281;-69
2023/12/17 06:06:24;;;;;;;6.10;3.50;;;;;;;9.75;100.00;103139.31;6135037;28;20231;-69
2023/12/17 06:09:45;;;;;;;3.53;3.23;;;;;;;9.77;100.00;103148.19;6132271;28;20580;-69
2023/12/17 06:13:06;;;;;;;3.67;3.37;;;;;;;9.76;100.00;103146.47;6128787;28;20284;-69
2023/12/17 06:16:27;;;;;;;2.90;2.43;;;;;;;9.76;100.00;103152.72;6133401;28;20573;-69
2023/12/17 06:19:49;;;;;;;2.80;2.60;;;;;;;9.78;100.00;103147.25;6135461;28;20239;-69
2023/12/17 06:23:11;;;;;;;4.43;2.90;;;;;;;9.79;100.00;103140.91;6135390;28;20235;-69
2023/12/17 06:26:32;;;;;;;3.60;3.30;;;;;;;9.77;100.00;103142.81;6136022;28;20239;-69
2023/12/17 06:29:54;;;;;;;3.30;3.00;;;;;;;9.79;100.00;103140.91;6135289;28;20246;-69
2023/12/17 06:33:15;;;;;;;3.20;2.87;;;;;;;9.80;100.00;103145.38;6132496;28;20234;-68
2023/12/17 06:36:37;;;;;;;2.97;2.77;;;;;;;9.80;100.00;103148.06;6138962;28;20238;-70
2023/12/17 06:39:58;;;;;;;4.83;3.53;;;;;;;9.78;100.00;103141.88;6139222;28;20239;-69
2023/12/17 06:43:19;;;;;;;3.50;3.20;;;;;;;9.80;100.00;103166.91;6127676;28;20699;-70
2023/12/17 06:46:40;;;;;;;5.87;2.77;;;;;;;9.79;100.00;103149.88;6129595;28;20249;-70
2023/12/17 06:50:01;;;;;;;3.97;3.43;;;;;;;9.80;100.00;103146.25;6129992;28;20565;-70
2023/12/17 06:53:23;;;;;;;3.17;2.77;;;;;;;9.81;100.00;103155.16;6135994;28;20239;-70
2023/12/17 06:56:44;;;;;;;3.80;2.93;;;;;;;9.82;100.00;103155.13;6132992;28;20239;-70
2023/12/17 07:00:06;;;;;;;3.80;2.97;;;;;;;9.80;100.00;103146.25;6131698;28;20330;-69
2023/12/17 07:03:27;;;;;;;3.53;3.13;;;;;;;9.82;100.00;103165.00;6122950;28;20525;-69
2023/12/17 07:06:48;;;;;;;2.90;2.70;;;;;;;9.82;100.00;103156.94;6131867;28;20261;-70
2023/12/17 07:10:12;;;;;;;4.00;2.37;;;;;;;9.80;100.00;103162.41;6135444;28;21316;-69
2023/12/17 07:13:32;;;;;;;2.93;2.30;;;;;;;9.81;100.00;103157.88;6141248;28;20349;-69
2023/12/17 07:16:53;;;;;;;4.93;4.20;;;;;;;9.80;100.00;103158.84;6139955;28;20235;-69
2023/12/17 07:20:15;;;;;;;4.23;3.10;;;;;;;9.81;100.00;103163.25;6134022;28;20561;-69
2023/12/17 07:23:36;;;;;;;5.23;3.30;;;;;;;9.83;100.00;103167.63;6140901;28;20486;-69
2023/12/17 07:26:58;;;;;;;3.80;2.50;;;;;;;9.84;100.00;103172.06;6133540;28;20706;-70
2023/12/17 07:30:19;;;;;;;6.43;3.97;;;;;;;9.85;100.00;103178.31;6138160;28;20234;-69
2023/12/17 07:33:40;;;;;;;3.20;2.90;;;;;;;10.15;100.00;103169.63;6138367;28;21338;-70
2023/12/17 07:37:01;;;;;;;3.13;2.80;;;;;;;10.08;100.00;103178.06;6132187;28;20243;-69
2023/12/17 07:40:22;;;;;;;3.40;3.00;;;;;;;10.14;100.00;103167.88;6137508;28;20329;-69
2023/12/17 07:43:45;;;;;;;4.77;3.83;;;;;;;10.15;100.00;103174.16;6137961;28;20253;-70
2023/12/17 07:47:06;;;;;;;4.47;3.17;;;;;;;10.18;100.00;103174.00;6133807;28;20238;-71
2023/12/17 07:50:27;;;;;;;4.00;3.10;;;;;;;10.19;100.00;103157.75;6136732;28;22266;-70
2023/12/17 07:53:48;;;;;;;4.53;3.40;;;;;;;10.02;100.00;103162.19;6138562;28;20231;-69
2023/12/17 07:57:09;;;;;;;4.43;3.20;;;;;;;9.91;100.00;103151.94;6132874;28;20309;-70
2023/12/17 08:00:31;;;;;;;3.63;3.17;;;;;;;9.89;100.00;103156.53;6133359;28;20239;-71
2023/12/17 08:03:52;;;;;;;5.27;3.57;;;;;;;9.90;100.00;103141.25;6139854;28;20232;-69
2023/12/17 08:07:13;;;;;;;4.33;3.90;;;;;;;9.92;100.00;103124.06;6132875;28;20271;-69
2023/12/17 08:10:34;;;;;;;5.83;5.23;;;;;;;9.93;100.00;103130.34;6134123;28;20234;-69
2023/12/17 08:13:55;;;;;;;4.20;3.87;;;;;;;9.96;100.00;103132.88;6137158;28;20235;-69
2023/12/17 08:17:18;;;;;;;5.47;5.00;;;;;;;9.97;100.00;103131.94;6135618;28;20238;-70
2023/12/17 08:20:39;;;;;;;5.33;4.33;;;;;;;9.98;100.00;103144.44;6127083;28;20235;-70
2023/12/17 08:24:00;;;;;;;4.90;4.57;;;;;;;9.98;100.00;103141.75;6139819;28;20227;-70
2023/12/17 08:27:21;;;;;;;6.93;6.03;;;;;;;9.97;100.00;103140.88;6134840;28;20247;-70
2023/12/17 08:30:42;;;;;;;5.33;4.53;;;;;;;9.99;100.00;103140.81;6135671;28;20230;-70
2023/12/17 08:34:04;;;;;;;5.10;4.23;;;;;;;10.03;100.00;103137.00;6138160;28;20235;-70
2023/12/17 08:37:26;;;;;;;5.03;4.50;;;;;;;10.02;100.00;103144.22;6133393;28;20231;-71
2023/12/17 08:40:47;;;;;;;4.57;4.20;;;;;;;10.04;100.00;103142.31;6139627;28;20231;-71
2023/12/17 08:44:08;;;;;;;6.87;4.50;;;;;;;10.03;100.00;103124.41;6135049;28;20239;-70
2023/12/17 08:47:29;;;;;;;5.03;4.63;;;;;;;10.07;100.00;103138.59;6138723;28;20327;-70
2023/12/17 08:50:51;;;;;;;6.03;4.57;;;;;;;10.05;100.00;103137.81;6133766;28;20234;-69
2023/12/17 08:54:12;;;;;;;5.70;5.30;;;;;;;10.03;100.00;103143.28;6136189;28;20227;-70
2023/12/17 08:57:33;;;;;;;5.67;4.57;;;;;;;10.13;100.00;103133.81;6135400;28;20695;-70
2023/12/17 09:00:54;;;;;;;4.80;4.40;;;;;;;10.07;100.00;103138.59;6132778;28;20298;-69
2023/12/17 09:04:15;;;;;;;5.23;4.63;;;;;;;10.24;100.00;103141.34;6136297;28;20257;-71
2023/12/17 09:07:37;;;;;;;10.70;8.07;;;;;;;10.58;100.00;103130.53;6135339;28;20238;-70
2023/12/17 09:10:58;;;;;;;7.00;5.17;;;;;;;10.52;100.00;103146.16;6140129;28;20680;-70
2023/12/17 09:14:19;;;;;;;12.93;6.87;;;;;;;11.19;100.00;103139.78;6131059;28;20574;-76
2023/12/17 09:17:42;;;;;;;107.03;95.80;;;;;;;11.38;100.00;103154.94;6133598;28;20227;-74
2023/12/17 09:21:03;;;;;;;101.83;71.63;;;;;;;11.40;100.00;103139.53;6147034;28;20649;-72
2023/12/17 09:24:25;;;;;;;55.00;49.40;;;;;;;11.26;100.00;103151.97;6131565;28;20243;-80
2023/12/17 09:27:47;;;;;;;416.93;371.17;;;;;;;11.32;100.00;103155.28;6137741;28;20245;-77
2023/12/17 09:31:08;;;;;;;31.23;26.10;;;;;;;10.63;100.00;103157.28;6136599;28;20239;-70
2023/12/17 09:34:29;;;;;;;5.97;4.87;;;;;;;10.52;100.00;103133.56;6137451;28;20236;-70
2023/12/17 09:37:51;;;;;;;10.63;4.87;;;;;;;10.41;100.00;103158.38;6139894;28;20239;-71
2023/12/17 09:41:14;;;;;;;10.80;6.23;;;;;;;10.33;100.00;103143.56;6138619;28;20234;-71
2023/12/17 09:44:34;;;;;;;5.83;4.17;;;;;;;10.33;100.00;103143.56;6141991;28;20628;-71
2023/12/17 09:47:55;;;;;;;4.67;4.27;;;;;;;10.38;100.00;103150.47;6136569;28;20270;-70
2023/12/17 09:51:18;;;;;;;4.30;3.90;;;;;;;10.22;100.00;103140.56;6139037;28;20235;-71
2023/12/17 09:54:41;;;;;;;5.33;4.83;;;;;;;10.21;100.00;103136.09;6140882;28;20316;-70
2023/12/17 09:58:04;;;;;;;6.03;4.77;;;;;;;10.16;100.00;103130.94;6137438;28;20274;-69
2023/12/17 10:01:27;;;;;;;6.20;5.33;;;;;;;10.12;100.00;103141.94;6132961;28;20246;-70
2023/12/17 10:04:47;;;;;;;7.33;4.20;;;;;;;10.20;100.00;103139.75;6134407;28;20231;-71
2023/12/17 10:08:08;;;;;;;5.13;4.63;;;;;;;10.17;100.00;103130.00;6129729;28;20223;-70
2023/12/17 10:11:29;;;;;;;5.33;4.93;;;;;;;10.11;100.00;103133.00;6134065;28;20753;-70
2023/12/17 10:14:52;;;;;;;6.20;5.60;;;;;;;10.15;100.00;103129.22;6139436;28;20797;-70
2023/12/17 10:18:13;;;;;;;8.43;6.20;;;;;;;10.20;100.00;103127.13;6135726;28;20329;-70
2023/12/17 10:21:34;;;;;;;10.07;7.00;;;;;;;10.07;100.00;103128.69;6134915;28;20235;-71
2023/12/17 10:24:55;;;;;;;8.43;7.70;;;;;;;10.11;100.00;103132.13;6141736;28;20258;-70
2023/12/17 10:28:16;;;;;;;7.40;6.23;;;;;;;10.12;100.00;103123.09;6136671;28;20321;-71
2023/12/17 10:31:41;;;;;;;7.10;6.60;;;;;;;10.08;100.00;103121.47;6139925;28;20239;-71
2023/12/17 10:35:03;;;;;;;9.90;7.80;;;;;;;10.13;100.00;103105.97;6139626;28;20710;-71
2023/12/17 10:38:25;;;;;;;10.00;8.97;;;;;;;10.18;100.00;103118.25;6137694;28;20241;-70
2023/12/17 10:41:48;;;;;;;8.20;7.50;;;;;;;10.13;100.00;103114.94;6135136;28;20262;-70
2023/12/17 10:45:11;;;;;;;10.20;9.30;;;;;;;10.03;100.00;103108.25;6132050;28;20262;-71
2023/12/17 10:48:33;;;;;;;13.33;8.70;;;;;;;9.92;100.00;103136.66;6134977;28;20254;-71
2023/12/17 10:51:55;;;;;;;10.17;8.77;;;;;;;10.06;100.00;103104.50;6132693;28;20243;-71
2023/12/17 10:55:17;;;;;;;9.97;8.97;;;;;;;10.01;100.00;103098.50;6133622;28;20283;-71
2023/12/17 10:58:38;;;;;;;12.03;10.83;;;;;;;9.97;100.00;103103.13;6132531;28;20371;-71
2023/12/17 11:02:02;;;;;;;9.90;9.00;;;;;;;9.99;100.00;103092.31;6130462;28;20239;-69
2023/12/17 11:05:24;;;;;;;9.37;8.57;;;;;;;9.98;100.00;103064.47;6132882;28;20411;-70
2023/12/17 11:08:46;;;;;;;9.27;8.27;;;;;;;10.07;100.00;103052.38;6128679;28;20732;-70
2023/12/17 11:12:08;;;;;;;8.77;7.87;;;;;;;10.06;100.00;103053.31;6130574;28;20609;-70
2023/12/17 11:15:32;;;;;;;10.20;9.23;;;;;;;10.15;100.00;103055.56;6137891;28;20303;-70
2023/12/17 11:18:53;;;;;;;8.13;7.43;;;;;;;10.24;100.00;103047.84;6134799;28;20244;-70
2023/12/17 11:22:16;;;;;;;9.27;7.30;;;;;;;10.35;100.00;103033.81;6135086;28;20640;-70
2023/12/17 11:25:37;;;;;;;9.13;8.13;;;;;;;10.41;100.00;103017.28;6146780;28;20788;-70
2023/12/17 11:28:58;;;;;;;8.23;7.53;;;;;;;10.42;100.00;103027.16;6139237;28;20254;-70
2023/12/17 11:32:20;;;;;;;9.37;6.43;;;;;;;10.50;100.00;103019.50;6138954;28;20246;-72
2023/12/17 11:35:42;;;;;;;8.07;7.27;;;;;;;10.84;100.00;103016.72;6137130;28;20616;-70
2023/12/17 11:39:04;;;;;;;7.07;6.37;;;;;;;10.90;100.00;103005.56;6131851;28;20715;-69
2023/12/17 11:42:26;;;;;;;8.03;6.90;;;;;;;10.69;100.00;103017.56;6135706;28;20240;-70
2023/12/17 11:45:48;;;;;;;8.17;5.97;;;;;;;10.78;100.00;103013.47;6127428;28;20231;-71
2023/12/17 11:49:09;;;;;;;5.70;5.23;;;;;;;10.89;100.00;103001.13;6137133;28;20235;-71
2023/12/17 11:52:30;;;;;;;4.47;4.07;;;;;;;11.69;100.00;102992.88;6126376;28;20238;-71
2023/12/17 11:55:55;;;;;;;3.20;3.00;;;;;;;12.00;100.00;102998.19;6131353;28;21305;-71
2023/12/17 11:59:16;;;;;;;4.70;4.27;;;;;;;12.06;100.00;102989.69;6131194;28;20608;-71
2023/12/17 12:02:37;;;;;;;4.13;3.73;;;;;;;12.67;100.00;102971.38;6133409;28;20383;-70
2023/12/17 12:05:59;;;;;;;4.23;3.93;;;;;;;11.69;100.00;102968.56;6126800;28;20239;-70
2023/12/17 12:09:20;;;;;;;3.97;3.57;;;;;;;11.92;100.00;102959.94;6126181;28;20238;-73
2023/12/17 12:12:42;;;;;;;4.43;4.03;;;;;;;11.40;100.00;102969.38;6132586;28;20235;-76
2023/12/17 12:16:04;;;;;;;4.57;3.63;;;;;;;11.18;100.00;102969.78;6138170;28;20242;-75
2023/12/17 12:19:24;;;;;;;3.80;3.50;;;;;;;10.75;100.00;102967.78;6129367;28;20238;-73
2023/12/17 12:22:45;;;;;;;4.53;3.63;;;;;;;10.68;100.00;102969.94;6124979;28;20333;-73
2023/12/17 12:26:07;;;;;;;6.03;4.20;;;;;;;10.55;100.00;102976.13;6134501;28;20554;-75
2023/12/17 12:29:36;;;;;;;4.70;3.37;;;;;;;10.68;100.00;102964.53;6125402;28;20249;-74
2023/12/17 12:32:56;;;;;;;5.53;4.77;;;;;;;10.44;100.00;102953.31;6130755;28;20246;-73
2023/12/17 12:36:19;;;;;;;5.00;4.20;;;;;;;10.39;100.00;102968.84;6119881;28;20275;-76
2023/12/17 12:39:47;;;;;;;6.17;4.13;;;;;;;10.39;100.00;102963.47;6119045;28;20280;-74
2023/12/17 12:43:08;;;;;;;5.60;4.53;;;;;;;10.30;100.00;102961.28;6129123;28;20334;-74
2023/12/17 12:46:30;;;;;;;6.73;4.83;;;;;;;10.50;100.00;102951.22;6125302;28;20239;-74
2023/12/17 12:49:51;;;;;;;6.60;5.63;;;;;;;10.36;100.00;102939.38;6126637;28;20247;-74
2023/12/17 12:53:13;;;;;;;6.33;5.17;;;;;;;10.44;100.00;102930.84;6127021;28;20624;-74
2023/12/17 12:56:35;;;;;;;6.30;5.70;;;;;;;10.51;100.00;102948.44;6130029;28;20238;-74
2023/12/17 12:59:55;;;;;;;5.17;4.67;;;;;;;10.40;100.00;102949.03;6140949;28;20985;-75
2023/12/17 13:03:17;;;;;;;7.27;6.03;;;;;;;10.31;100.00;102943.25;6129616;28;20569;-70
2023/12/17 13:06:40;;;;;;;7.23;5.97;;;;;;;10.41;100.00;102939.09;6139561;28;20231;-70
2023/12/17 13:10:01;;;;;;;9.00;6.37;;;;;;;10.38;100.00;102937.47;6126551;28;20508;-71
2023/12/17 13:13:22;;;;;;;7.83;5.53;;;;;;;10.43;100.00;102948.84;6134956;28;20238;-74
2023/12/17 13:16:43;;;;;;;8.07;7.27;;;;;;;10.36;100.00;102933.13;6137627;28;20235;-74
2023/12/17 13:20:08;;;;;;;8.20;6.10;;;;;;;10.38;100.00;102942.00;6137041;28;20898;-75
2023/12/17 13:23:30;;;;;;;9.53;7.43;;;;;;;10.42;100.00;102935.47;6133579;28;20698;-74
2023/12/17 13:26:52;;;;;;;8.50;7.17;;;;;;;10.42;100.00;102925.56;6138791;28;20238;-73
2023/12/17 13:30:13;;;;;;;10.90;8.43;;;;;;;10.39;100.00;102949.97;6127369;28;20231;-74
2023/12/17 13:33:34;;;;;;;7.00;6.30;;;;;;;10.34;100.00;102899.97;6139069;28;20235;-74
2023/12/17 13:36:56;;;;;;;7.37;6.67;;;;;;;10.34;100.00;102921.53;6135182;28;20234;-75
2023/12/17 13:40:17;;;;;;;9.27;7.60;;;;;;;10.33;100.00;102914.41;6134515;28;20318;-74
2023/12/17 13:43:38;;;;;;;7.90;7.10;;;;;;;10.28;100.00;102911.94;6124300;28;20239;-73
2023/12/17 13:46:59;;;;;;;8.67;6.67;;;;;;;10.41;100.00;102918.41;6124198;28;20238;-76
2023/12/17 13:50:20;;;;;;;8.13;7.23;;;;;;;10.43;100.00;102896.75;6120437;28;20242;-76
2023/12/17 13:53:42;;;;;;;5.90;5.40;;;;;;;10.40;100.00;102892.44;6126843;28;20230;-77
2023/12/17 13:57:04;;;;;;;8.23;6.80;;;;;;;10.45;100.00;102884.94;6122886;28;20254;-77
2023/12/17 14:00:26;;;;;;;11.63;8.30;;;;;;;10.42;100.00;102895.03;6131929;28;20500;-78
2023/12/17 14:03:47;;;;;;;7.00;6.30;;;;;;;10.16;100.00;102901.84;6137859;28;20235;-77
2023/12/17 14:07:08;;;;;;;9.43;8.47;;;;;;;10.15;100.00;102908.22;6128477;28;20243;-72
2023/12/17 14:10:30;;;;;;;10.57;8.50;;;;;;;10.26;100.00;102892.28;6126316;28;20227;-73
2023/12/17 14:13:51;;;;;;;8.87;6.57;;;;;;;10.26;100.00;102878.81;6129365;28;20231;-73
2023/12/17 14:17:12;;;;;;;8.13;6.60;;;;;;;10.35;100.00;102880.13;6135059;28;20548;-72
2023/12/17 14:20:33;;;;;;;7.03;6.30;;;;;;;10.34;100.00;102862.25;6133844;28;20672;-72
2023/12/17 14:23:54;;;;;;;7.00;6.30;;;;;;;10.24;100.00;102864.56;6138773;28;20238;-74
2023/12/17 14:27:16;;;;;;;9.53;8.63;;;;;;;10.18;100.00;102869.44;6134709;28;20234;-73
2023/12/17 14:30:37;;;;;;;7.97;6.27;;;;;;;10.17;100.00;102856.91;6114389;28;20235;-73
2023/12/17 14:34:02;;;;;;;7.63;6.20;;;;;;;10.06;100.00;102867.38;6150935;28;20767;-73
2023/12/17 14:37:23;;;;;;;8.10;7.30;;;;;;;10.06;100.00;102870.06;6141083;28;20597;-73
2023/12/17 14:40:44;;;;;;;8.00;7.20;;;;;;;9.95;100.00;102870.63;6148082;28;20319;-73
2023/12/17 14:44:07;;;;;;;9.57;6.50;;;;;;;9.87;100.00;102862.09;6132954;28;20333;-72
2023/12/17 14:47:28;;;;;;;8.80;7.67;;;;;;;9.82;100.00;102857.94;6137640;28;20235;-75
2023/12/17 14:50:48;;;;;;;7.60;6.77;;;;;;;9.87;100.00;102855.84;6142184;28;20267;-73
2023/12/17 14:54:09;;;;;;;9.40;6.90;;;;;;;9.77;100.00;102860.00;6134760;28;20356;-72
2023/12/17 14:57:30;;;;;;;8.47;6.20;;;;;;;9.70;100.00;102861.28;6143089;28;20809;-73
2023/12/17 15:00:52;;;;;;;7.73;6.37;;;;;;;9.68;100.00;102840.69;6135000;28;20322;-72
2023/12/17 15:04:14;;;;;;;8.97;7.47;;;;;;;9.63;100.00;102829.31;6138082;28;20238;-72
2023/12/17 15:07:35;;;;;;;8.67;7.77;;;;;;;9.62;100.00;102811.41;6129254;28;20231;-74
2023/12/17 15:10:55;;;;;;;9.10;8.27;;;;;;;9.62;100.00;102823.97;6125701;28;20231;-72
2023/12/17 15:14:17;;;;;;;7.63;6.77;;;;;;;9.65;100.00;102824.72;6137134;28;20231;-73
2023/12/17 15:17:40;;;;;;;8.03;7.23;;;;;;;9.64;100.00;102816.69;6129019;28;20242;-73
2023/12/17 15:21:01;;;;;;;9.23;7.33;;;;;;;9.49;100.00;102814.84;6129971;28;20235;-77
2023/12/17 15:24:22;;;;;;;8.60;7.43;;;;;;;9.43;100.00;102834.84;6129839;28;20242;-76
2023/12/17 15:27:44;;;;;;;9.63;7.47;;;;;;;9.38;100.00;102819.91;6141218;28;20235;-76